createdAt,value
2022-09-25T00:01:08.098Z,31.40
2022-09-25T00:03:36.478Z,53.40
2022-09-25T00:06:05.634Z,40.60
2022-09-25T00:08:34.027Z,41.00
2022-09-25T00:11:02.462Z,45.80
2022-09-25T00:13:32.170Z,49.40
2022-09-25T00:16:03.298Z,41.60
2022-09-25T00:18:45.445Z,45.80
2022-09-25T00:21:14.778Z,46.20
2022-09-25T00:23:43.785Z,36.20
2022-09-25T00:26:13.205Z,45.00
2022-09-25T00:28:43.298Z,42.00
2022-09-25T00:31:11.849Z,40.80
2022-09-25T00:33:40.774Z,40.60
2022-09-25T00:36:10.488Z,37.00
2022-09-25T00:38:39.255Z,36.40
2022-09-25T00:41:08.159Z,43.00
2022-09-25T00:43:55.917Z,34.80
2022-09-25T00:46:26.642Z,41.40
2022-09-25T00:48:56.613Z,37.40
2022-09-25T00:51:29.222Z,35.40
2022-09-25T00:53:58.589Z,30.80
2022-09-25T00:56:26.895Z,42.60
2022-09-25T00:58:55.687Z,38.00
2022-09-25T01:01:25.773Z,41.00
2022-09-25T01:03:56.253Z,39.80
2022-09-25T01:06:25.211Z,42.40
2022-09-25T01:08:53.479Z,30.40
2022-09-25T01:11:22.852Z,49.20
2022-09-25T01:13:51.170Z,41.20
2022-09-25T01:16:21.754Z,39.20
2022-09-25T01:18:59.379Z,32.40
2022-09-25T01:21:32.519Z,35.40
2022-09-25T01:24:20.680Z,36.60
2022-09-25T01:27:00.345Z,39.40
2022-09-25T01:29:31.482Z,42.80
2022-09-25T01:32:03.449Z,36.60
2022-09-25T01:34:36.535Z,39.80
2022-09-25T01:37:07.247Z,41.80
2022-09-25T01:39:37.921Z,39.20
2022-09-25T01:42:08.823Z,40.00
2022-09-25T01:44:38.948Z,40.80
2022-09-25T01:47:09.298Z,42.00
2022-09-25T01:49:38.897Z,39.40
2022-09-25T01:52:09.579Z,42.20
2022-09-25T01:54:40.259Z,37.00
2022-09-25T01:57:11.982Z,45.00
2022-09-25T01:59:44.391Z,41.80
2022-09-25T02:02:15.005Z,46.80
2022-09-25T02:04:44.499Z,42.20
2022-09-25T02:07:14.452Z,37.80
2022-09-25T02:09:44.292Z,37.80
2022-09-25T02:12:14.286Z,29.00
2022-09-25T02:14:46.788Z,14.60
2022-09-25T02:17:36.671Z,18.60
2022-09-25T02:20:19.245Z,13.20
2022-09-25T02:22:47.530Z,23.20
2022-09-25T02:25:18.575Z,15.20
2022-09-25T02:27:46.838Z,19.40
2022-09-25T02:30:17.583Z,18.00
2022-09-25T02:32:45.858Z,17.60
2022-09-25T02:35:14.579Z,23.80
2022-09-25T02:37:42.871Z,22.60
2022-09-25T02:40:12.259Z,19.80
2022-09-25T02:42:45.143Z,19.40
2022-09-25T02:45:21.172Z,17.20
2022-09-25T02:47:57.426Z,21.00
2022-09-25T02:50:27.603Z,22.20
2022-09-25T02:53:02.861Z,21.00
2022-09-25T02:55:35.709Z,21.80
2022-09-25T02:58:06.208Z,23.60
2022-09-25T03:00:36.394Z,19.00
2022-09-25T03:03:06.395Z,26.40
2022-09-25T03:05:34.657Z,24.60
2022-09-25T03:08:16.909Z,19.40
2022-09-25T03:10:46.798Z,16.00
2022-09-25T03:13:16.585Z,21.20
2022-09-25T03:15:47.291Z,14.00
2022-09-25T03:18:15.608Z,17.00
2022-09-25T03:20:52.772Z,18.20
2022-09-25T03:23:21.062Z,17.20
2022-09-25T03:25:50.535Z,13.60
2022-09-25T03:28:18.923Z,12.40
2022-09-25T03:30:57.121Z,18.60
2022-09-25T03:33:25.602Z,12.40
2022-09-25T03:36:02.585Z,12.40
2022-09-25T03:38:30.884Z,16.80
2022-09-25T03:40:59.209Z,14.60
2022-09-25T03:43:27.612Z,14.60
2022-09-25T03:45:57.334Z,12.80
2022-09-25T03:48:25.747Z,14.40
2022-09-25T03:50:56.425Z,21.60
2022-09-25T03:53:24.709Z,18.00
2022-09-25T03:55:52.984Z,14.60
2022-09-25T03:58:23.781Z,22.40
2022-09-25T04:00:52.110Z,16.80
2022-09-25T04:03:22.705Z,18.20
2022-09-25T04:05:51.016Z,21.00
2022-09-25T04:08:19.320Z,16.00
2022-09-25T04:10:48.149Z,26.40
2022-09-25T04:13:17.263Z,20.00
2022-09-25T04:15:47.110Z,16.80
2022-09-25T04:18:15.382Z,17.20
2022-09-25T04:20:45.311Z,15.60
2022-09-25T04:23:16.090Z,18.20
2022-09-25T04:25:44.403Z,20.20
2022-09-25T04:28:12.686Z,16.80
2022-09-25T04:30:41.433Z,17.60
2022-09-25T04:33:24.306Z,18.20
2022-09-25T04:35:54.236Z,16.60
2022-09-25T04:38:22.821Z,15.00
2022-09-25T04:40:51.290Z,16.00
2022-09-25T04:43:19.632Z,32.60
2022-09-25T04:45:48.258Z,27.40
2022-09-25T04:48:16.585Z,13.00
2022-09-25T04:50:49.106Z,16.60
2022-09-25T04:53:18.938Z,27.00
2022-09-25T04:55:48.274Z,22.40
2022-09-25T04:58:16.535Z,23.20
2022-09-25T05:00:45.052Z,27.00
2022-09-25T05:03:13.499Z,23.60
2022-09-25T05:05:41.978Z,21.60
2022-09-25T05:08:11.070Z,28.00
2022-09-25T05:13:28.306Z,22.60
2022-09-25T05:15:57.355Z,19.60
2022-09-25T05:18:25.887Z,17.80
2022-09-25T05:20:54.706Z,24.20
2022-09-25T05:23:24.071Z,26.60
2022-09-25T05:25:55.395Z,16.00
2022-09-25T05:28:24.951Z,19.00
2022-09-25T05:30:53.680Z,14.00
2022-09-25T05:33:22.031Z,13.80
2022-09-25T05:35:50.288Z,11.20
2022-09-25T05:38:19.048Z,23.20
2022-09-25T05:40:47.793Z,14.20
2022-09-25T05:43:17.908Z,12.40
2022-09-25T05:46:04.701Z,13.60
2022-09-25T05:48:33.043Z,10.80
2022-09-25T05:51:01.364Z,15.20
2022-09-25T05:53:34.254Z,22.00
2022-09-25T05:56:09.229Z,16.40
2022-09-25T05:58:59.604Z,15.80
2022-09-25T06:01:31.209Z,17.00
2022-09-25T06:03:59.511Z,12.80
2022-09-25T06:06:27.954Z,12.00
2022-09-25T06:08:56.441Z,13.40
2022-09-25T06:11:25.232Z,12.40
2022-09-25T06:14:13.489Z,13.80
2022-09-25T06:16:41.876Z,9.80
2022-09-25T06:19:10.600Z,12.00
2022-09-25T06:21:38.879Z,9.20
2022-09-25T06:24:07.378Z,11.80
2022-09-25T06:26:35.660Z,17.20
2022-09-25T06:29:04.272Z,4.40
2022-09-25T06:31:34.257Z,6.00
2022-09-25T06:34:03.937Z,7.60
2022-09-25T06:36:32.298Z,7.00
2022-09-25T06:39:00.586Z,7.00
2022-09-25T06:41:29.846Z,6.60
2022-09-25T06:44:15.361Z,10.00
2022-09-25T06:47:03.580Z,12.60
2022-09-25T06:49:48.955Z,12.60
2022-09-25T06:52:17.347Z,9.40
2022-09-25T06:54:45.688Z,11.80
2022-09-25T06:57:13.995Z,12.20
2022-09-25T06:59:42.292Z,14.60
2022-09-25T07:02:26.021Z,19.20
2022-09-25T07:04:54.402Z,23.60
2022-09-25T07:07:24.384Z,20.20
2022-09-25T07:09:52.761Z,18.00
2022-09-25T07:12:22.179Z,15.40
2022-09-25T07:14:50.960Z,19.00
2022-09-25T07:17:20.611Z,12.80
2022-09-25T07:19:52.070Z,19.80
2022-09-25T07:22:20.431Z,17.60
2022-09-25T07:24:48.762Z,21.60
2022-09-25T07:27:17.025Z,22.60
2022-09-25T07:29:45.366Z,22.60
2022-09-25T07:37:47.731Z,12.80
2022-09-25T07:40:16.150Z,13.80
2022-09-25T07:42:44.509Z,24.60
2022-09-25T07:45:13.316Z,19.00
2022-09-25T07:47:41.650Z,13.20
2022-09-25T07:50:15.404Z,12.00
2022-09-25T07:52:44.135Z,13.20
2022-09-25T07:55:12.427Z,12.00
2022-09-25T07:57:42.927Z,14.20
2022-09-25T08:00:12.312Z,12.60
2022-09-25T08:02:41.691Z,14.80
2022-09-25T08:05:14.683Z,8.00
2022-09-25T08:07:43.062Z,8.60
2022-09-25T08:10:11.941Z,9.60
2022-09-25T08:12:49.666Z,11.60
2022-09-25T08:15:18.202Z,8.60
2022-09-25T08:17:46.504Z,9.00
2022-09-25T08:20:16.367Z,6.00
2022-09-25T08:22:44.727Z,7.80
2022-09-25T08:25:13.178Z,7.00
2022-09-25T08:27:42.574Z,5.80
2022-09-25T08:30:13.965Z,4.80
2022-09-25T08:32:42.342Z,9.00
2022-09-25T08:35:11.165Z,6.00
2022-09-25T08:37:43.273Z,5.20
2022-09-25T08:40:18.307Z,3.80
2022-09-25T08:42:47.205Z,6.00
2022-09-25T08:45:39.919Z,3.80
2022-09-25T08:48:22.726Z,6.20
2022-09-25T08:50:53.524Z,6.00
2022-09-25T08:53:25.380Z,3.40
2022-09-25T08:56:07.517Z,6.40
2022-09-25T08:58:43.332Z,5.60
2022-09-25T09:01:15.016Z,3.40
2022-09-25T09:03:46.953Z,4.00
2022-09-25T09:06:17.106Z,4.40
2022-09-25T09:08:49.090Z,4.40
2022-09-25T09:11:19.461Z,4.00
2022-09-25T09:13:49.755Z,6.40
2022-09-25T09:16:21.162Z,7.80
2022-09-25T09:18:49.416Z,3.60
2022-09-25T09:21:22.803Z,5.60
2022-09-25T09:23:55.240Z,3.20
2022-09-25T09:26:26.379Z,1.00
2022-09-25T09:29:07.223Z,4.00
2022-09-25T09:31:41.698Z,3.60
2022-09-25T09:34:52.941Z,4.00
2022-09-25T09:37:22.498Z,3.80
2022-09-25T09:40:12.176Z,3.00
2022-09-25T09:42:44.318Z,4.00
2022-09-25T09:45:33.646Z,3.20
2022-09-25T09:48:06.849Z,3.00
2022-09-25T09:50:43.806Z,4.40
2022-09-25T09:53:19.271Z,3.40
2022-09-25T09:55:50.956Z,1.00
2022-09-25T09:58:21.652Z,4.20
2022-09-25T10:00:50.244Z,2.20
2022-09-25T10:03:20.199Z,4.00
2022-09-25T10:05:49.363Z,1.80
2022-09-25T10:08:18.778Z,2.20
2022-09-25T10:10:51.467Z,2.20
2022-09-25T10:13:21.707Z,1.00
2022-09-25T10:15:52.984Z,1.00
2022-09-25T10:18:22.451Z,3.00
2022-09-25T10:20:52.844Z,1.00
2022-09-25T10:23:35.216Z,2.50
2022-09-25T10:26:07.378Z,1.00
2022-09-25T10:31:40.701Z,1.00
2022-09-25T10:34:21.622Z,3.25
2022-09-25T10:36:51.393Z,0.50
2022-09-25T10:39:45.833Z,0.00
2022-09-25T10:42:36.363Z,1.00
2022-09-25T10:45:18.065Z,0.00
2022-09-25T10:48:05.815Z,1.00
2022-09-25T10:50:34.471Z,1.00
2022-09-25T10:53:04.309Z,1.00
2022-09-25T10:55:34.176Z,1.00
2022-09-25T10:58:10.622Z,0.25
2022-09-25T11:00:43.703Z,2.50
2022-09-25T11:03:21.467Z,1.00
2022-09-25T11:06:10.507Z,0.50
2022-09-25T11:08:41.499Z,1.00
2022-09-25T11:11:10.671Z,0.50
2022-09-25T11:13:46.479Z,0.25
2022-09-25T11:16:14.869Z,1.50
2022-09-25T11:18:45.330Z,0.50
2022-09-25T11:21:21.906Z,1.00
2022-09-25T11:24:14.709Z,0.50
2022-09-25T11:26:44.705Z,1.00
2022-09-25T11:29:17.146Z,1.00
2022-09-25T11:31:47.868Z,0.00
2022-09-25T11:34:21.324Z,1.00
2022-09-25T11:36:50.733Z,0.50
2022-09-25T11:39:37.739Z,1.00
2022-09-25T11:42:08.305Z,0.75
2022-09-25T11:44:40.306Z,0.50
2022-09-25T11:47:13.046Z,0.00
2022-09-25T11:49:41.482Z,1.50
2022-09-25T11:52:29.602Z,4.00
2022-09-25T11:55:33.624Z,1.00
2022-09-25T11:58:09.866Z,0.00
2022-09-25T12:00:45.648Z,0.00
2022-09-25T12:03:25.782Z,0.00
2022-09-25T12:06:06.947Z,1.00
2022-09-25T12:08:58.093Z,0.00
2022-09-25T12:11:30.525Z,0.00
2022-09-25T12:14:03.654Z,0.00
2022-09-25T12:16:52.683Z,1.00
2022-09-25T12:19:29.516Z,1.00
2022-09-25T12:22:01.328Z,3.00
2022-09-25T12:24:37.033Z,0.50
2022-09-25T12:27:09.895Z,0.00
2022-09-25T12:29:46.719Z,0.75
2022-09-25T12:32:22.049Z,0.25
2022-09-25T12:34:58.254Z,0.00
2022-09-25T12:37:32.424Z,2.00
2022-09-25T12:40:19.125Z,0.00
2022-09-25T12:42:52.255Z,0.00
2022-09-25T12:45:23.404Z,0.25
2022-09-25T12:48:01.403Z,0.00
2022-09-25T12:50:36.113Z,0.00
2022-09-25T12:53:07.015Z,0.00
2022-09-25T12:55:38.886Z,0.00
2022-09-25T12:58:28.522Z,2.00
2022-09-25T13:00:59.407Z,1.00
2022-09-25T13:03:37.384Z,0.50
2022-09-25T13:06:26.751Z,1.00
2022-09-25T13:08:58.129Z,0.00
2022-09-25T13:11:36.206Z,1.00
2022-09-25T13:14:22.035Z,1.00
2022-09-25T13:16:50.358Z,3.00
2022-09-25T13:22:14.363Z,0.00
2022-09-25T13:24:50.496Z,1.00
2022-09-25T13:30:20.581Z,0.75
2022-09-25T13:32:49.514Z,0.75
2022-09-25T13:35:37.634Z,1.00
2022-09-25T13:38:11.816Z,1.00
2022-09-25T13:40:42.899Z,1.00
2022-09-25T13:43:20.973Z,0.25
2022-09-25T13:45:50.461Z,0.00
2022-09-25T13:48:35.756Z,1.00
2022-09-25T13:51:34.847Z,1.00
2022-09-25T13:54:05.117Z,0.50
2022-09-25T13:56:48.616Z,1.00
2022-09-25T13:59:36.406Z,1.50
2022-09-25T14:02:34.280Z,1.00
2022-09-25T14:05:02.631Z,1.00
2022-09-25T14:07:32.302Z,0.75
2022-09-25T14:10:02.103Z,1.00
2022-09-25T14:12:39.286Z,0.67
2022-09-25T14:15:09.372Z,1.00
2022-09-25T14:17:38.497Z,0.75
2022-09-25T14:20:11.306Z,1.00
2022-09-25T14:22:46.640Z,1.50
2022-09-25T14:25:28.529Z,1.00
2022-09-25T14:27:57.053Z,3.00
2022-09-25T14:30:29.354Z,3.00
2022-09-25T14:33:06.863Z,1.50
2022-09-25T14:35:38.825Z,3.50
2022-09-25T14:38:36.038Z,3.00
2022-09-25T14:41:18.908Z,3.00
2022-09-25T14:43:55.435Z,1.00
2022-09-25T14:46:23.894Z,1.50
2022-09-25T14:48:54.479Z,2.50
2022-09-25T14:51:25.821Z,2.00
2022-09-25T14:56:42.949Z,3.00
2022-09-25T14:59:28.107Z,4.50
2022-09-25T15:01:56.542Z,2.50
2022-09-25T15:04:28.303Z,1.00
2022-09-25T15:07:01.579Z,0.00
2022-09-25T15:09:32.570Z,1.00
2022-09-25T15:12:01.276Z,0.00
2022-09-25T15:14:29.563Z,0.00
2022-09-25T15:17:11.617Z,0.00
2022-09-25T15:19:42.737Z,0.75
2022-09-25T15:22:11.741Z,0.25
2022-09-25T15:24:41.739Z,0.00
2022-09-25T15:27:13.606Z,0.00
2022-09-25T15:29:44.148Z,0.00
2022-09-25T15:32:17.792Z,1.50
2022-09-25T15:34:46.136Z,0.00
2022-09-25T15:37:23.772Z,0.00
2022-09-25T15:39:53.581Z,1.00
2022-09-25T15:42:22.283Z,1.00
2022-09-25T15:44:50.979Z,1.00
2022-09-25T15:47:50.831Z,1.00
2022-09-25T15:50:23.351Z,1.00
2022-09-25T15:53:10.000Z,1.00
2022-09-25T15:55:40.613Z,1.00
2022-09-25T15:58:15.767Z,1.00
2022-09-25T16:01:13.337Z,0.50
2022-09-25T16:03:57.498Z,0.75
2022-09-25T16:06:26.415Z,3.00
2022-09-25T16:09:09.175Z,1.00
2022-09-25T16:11:39.016Z,1.00
2022-09-25T16:14:22.196Z,0.75
2022-09-25T16:16:53.978Z,1.00
2022-09-25T16:19:30.304Z,0.25
2022-09-25T16:22:03.562Z,2.50
2022-09-25T16:24:32.294Z,0.50
2022-09-25T16:27:02.681Z,0.00
2022-09-25T16:29:31.708Z,0.25
2022-09-25T16:32:02.435Z,1.00
2022-09-25T16:34:32.129Z,1.00
2022-09-25T16:37:03.138Z,1.00
2022-09-25T16:39:33.315Z,1.00
2022-09-25T16:42:04.637Z,3.00
2022-09-25T16:44:47.277Z,1.00
2022-09-25T16:47:18.065Z,3.00
2022-09-25T16:49:46.401Z,3.25
2022-09-25T16:52:20.782Z,3.00
2022-09-25T16:54:53.910Z,0.00
2022-09-25T16:57:45.945Z,1.50
2022-09-25T17:00:16.976Z,0.75
2022-09-25T17:02:45.913Z,3.00
2022-09-25T17:05:18.113Z,1.00
2022-09-25T17:07:48.365Z,1.00
2022-09-25T17:10:17.352Z,1.40
2022-09-25T17:12:53.318Z,1.00
2022-09-25T17:15:24.039Z,0.40
2022-09-25T17:17:55.849Z,1.00
2022-09-25T17:20:26.426Z,0.00
2022-09-25T17:22:55.697Z,1.00
2022-09-25T17:25:31.986Z,3.80
2022-09-25T17:28:01.651Z,3.00
2022-09-25T17:30:30.479Z,1.00
2022-09-25T17:32:59.039Z,3.00
2022-09-25T17:35:32.589Z,2.20
2022-09-25T17:38:02.582Z,3.00
2022-09-25T17:40:31.204Z,3.00
2022-09-25T17:42:59.522Z,3.00
2022-09-25T17:45:33.217Z,1.00
2022-09-25T17:48:18.766Z,3.00
2022-09-25T17:50:47.067Z,1.40
2022-09-25T17:53:17.775Z,1.00
2022-09-25T17:55:51.201Z,2.20
2022-09-25T17:58:40.702Z,3.00
2022-09-25T18:01:14.109Z,3.00
2022-09-25T18:03:42.492Z,4.00
2022-09-25T18:06:10.790Z,3.20
2022-09-25T18:08:58.926Z,3.00
2022-09-25T18:11:27.408Z,4.40
2022-09-25T18:13:57.605Z,4.00
2022-09-25T18:16:52.402Z,6.40
2022-09-25T18:19:55.274Z,7.00
2022-09-25T18:22:25.743Z,3.00
2022-09-25T18:24:57.095Z,5.60
2022-09-25T18:27:25.826Z,5.20
2022-09-25T18:29:54.085Z,9.40
2022-09-25T18:32:25.266Z,4.00
2022-09-25T18:34:53.822Z,3.60
2022-09-25T18:37:22.253Z,6.80
2022-09-25T18:39:51.043Z,3.00
2022-09-25T18:42:19.351Z,4.80
2022-09-25T18:44:47.854Z,3.80
2022-09-25T18:47:16.453Z,4.40
2022-09-25T18:49:46.196Z,3.80
2022-09-25T18:52:14.735Z,3.40
2022-09-25T18:54:43.080Z,3.60
2022-09-25T18:57:12.479Z,4.80
2022-09-25T18:59:40.806Z,4.40
2022-09-25T19:02:17.680Z,3.00
2022-09-25T19:04:48.008Z,3.00
2022-09-25T19:07:17.046Z,3.80
2022-09-25T19:09:45.328Z,3.20
2022-09-25T19:12:17.223Z,1.40
2022-09-25T19:14:45.570Z,4.00
2022-09-25T19:17:16.420Z,6.00
2022-09-25T19:19:44.744Z,6.20
2022-09-25T19:22:16.113Z,5.20
2022-09-25T19:24:46.370Z,4.00
2022-09-25T19:27:15.732Z,6.20
2022-09-25T19:29:44.178Z,5.20
2022-09-25T19:32:13.591Z,4.80
2022-09-25T19:34:42.053Z,6.00
2022-09-25T19:37:11.168Z,6.00
2022-09-25T19:39:55.269Z,6.00
2022-09-25T19:42:23.938Z,3.00
2022-09-25T19:44:54.283Z,7.00
2022-09-25T19:47:22.775Z,6.20
2022-09-25T19:50:08.920Z,7.20
2022-09-25T19:52:38.386Z,4.80
2022-09-25T19:55:08.880Z,7.40
2022-09-25T19:57:37.377Z,6.20
2022-09-25T20:00:06.433Z,6.00
2022-09-25T20:02:34.891Z,5.20
2022-09-25T20:05:03.331Z,3.20
2022-09-25T20:07:31.677Z,7.00
2022-09-25T20:10:00.369Z,6.00
2022-09-25T20:12:30.126Z,8.60
2022-09-25T20:14:58.489Z,4.80
2022-09-25T20:17:27.350Z,6.80
2022-09-25T20:19:55.924Z,6.80
2022-09-25T20:22:24.263Z,6.20
2022-09-25T20:24:52.763Z,7.00
2022-09-25T20:27:26.064Z,12.60
2022-09-25T20:29:55.906Z,11.60
2022-09-25T20:32:24.190Z,9.20
2022-09-25T20:34:53.153Z,11.80
2022-09-25T20:37:21.455Z,11.60
2022-09-25T20:40:19.440Z,12.00
2022-09-25T20:42:48.423Z,7.40
2022-09-25T20:45:19.041Z,10.80
2022-09-25T20:47:48.165Z,10.80
2022-09-25T20:50:17.335Z,17.20
2022-09-25T20:52:46.363Z,4.00
2022-09-25T20:55:19.060Z,13.40
2022-09-25T20:57:47.385Z,12.00
2022-09-25T21:00:19.403Z,10.20
2022-09-25T21:02:50.083Z,8.20
2022-09-25T21:05:18.460Z,10.20
2022-09-25T21:07:46.819Z,6.00
2022-09-25T21:10:17.020Z,4.40
2022-09-25T21:12:45.751Z,6.00
2022-09-25T21:15:14.039Z,6.40
2022-09-25T21:17:43.898Z,6.80
2022-09-25T21:20:12.774Z,7.00
2022-09-25T21:22:41.304Z,6.00
2022-09-25T21:25:10.323Z,9.60
2022-09-25T21:27:38.937Z,6.00
2022-09-25T21:30:07.974Z,7.80
2022-09-25T21:32:36.297Z,4.80
2022-09-25T21:35:06.164Z,3.00
2022-09-25T21:37:35.911Z,5.20
2022-09-25T21:40:05.641Z,6.20
2022-09-25T21:42:34.119Z,7.80
2022-09-25T21:47:50.888Z,6.80
2022-09-25T21:50:20.560Z,9.00
2022-09-25T21:52:48.839Z,3.40
2022-09-25T21:55:17.378Z,3.00
2022-09-25T21:57:46.083Z,6.00
2022-09-25T22:00:16.925Z,8.20
2022-09-25T22:02:45.359Z,4.40
2022-09-25T22:05:15.890Z,8.60
2022-09-25T22:07:46.660Z,7.40
2022-09-25T22:10:14.946Z,7.00
2022-09-25T22:12:43.313Z,4.80
2022-09-25T22:15:12.215Z,6.00
2022-09-25T22:17:40.511Z,7.40
2022-09-25T22:20:11.380Z,6.00
2022-09-25T22:22:40.121Z,3.80
2022-09-25T22:25:10.312Z,4.40
2022-09-25T22:27:41.498Z,8.60
2022-09-25T22:30:15.498Z,7.00
2022-09-25T22:32:46.364Z,3.40
2022-09-25T23:05:43.007Z,9.00
2022-09-25T23:35:41.503Z,6.20
2022-09-25T23:38:51.779Z,4.00
2022-09-25T23:41:21.064Z,5.20
2022-09-25T23:44:33.057Z,6.40
2022-09-25T23:51:35.918Z,6.00
2022-09-25T23:54:05.699Z,6.20
2022-09-25T23:56:34.807Z,10.00
2022-09-25T23:59:27.121Z,7.00
